New Braunfels, TX

7:53 PM CST on January 26, 2015 (GMT -0600)
Gruene Crossing | Change Station
CLOSE
Current Station
Personal Weather Station
Location: New Braunfels, TX
Elevation: 701 ft
Nearby Weather Stations

Elev 701 ft 29.73 °N, 98.10 °W | Updated 21 seconds ago

Haze
Haze
57.9 °F
Feels Like 57.9 °F
N
2.7
Wind Variable Wind from WSW
Gusts 2.7 mph

Today
High -- | Low -- °F
--% Chance of Precip.
Yesterday
High -- | Low -- °F
Precip. -- in
7:25 AM 6:04 PM
Waxing Crescent, 49% visible
Pressure 30.17 in
Visibility 5.0 miles
Clouds Clear
Dew Point 9 °F
Humidity 14%
Rainfall 0.00 in
Snow Depth Not available.
UV 0 out of 12
Pollen 8.00 out of 12
Air Quality Not available.
Flu Activity Not available.
METAR KBAZ 270051Z AUTO 26007KT 5SM HZ CLR 15/04 A3017 RMK AO2 SLP214 T01500044

More Conditions Fewer Conditions

Pressure 30.17 in
Visibility 5.0 miles
Clouds Clear
Dew Point 9 °F
Humidity 14%
Rainfall 0.00 in
Snow Depth Not available.
UV 0 out of 12
Pollen 8.00 out of 12
Air Quality Not available.
Flu Activity Not available.
METAR KBAZ 270051Z AUTO 26007KT 5SM HZ CLR 15/04 A3017 RMK AO2 SLP214 T01500044

More Conditions Fewer Conditions

10-Day Weather Forecast

Almanac

Astronomy

Jan. 26, 2015 Rise Set
Actual Time
Civil Twilight
Nautical Twilight
Astronomical Twilight
Moon
Length of Visible Light
Length of Day
Tomorrow will be .
, % of the Moon is Illuminated

Today's Extremes

State Highs State Lows

Community

WunderPhotos

Upload Photos

1,790,451 photos uploaded!

WunderBlogs® & News

Nearby

Air Quality

  Air Quality AQ Index Pollutant
Not available.

Snow Depth

Station Depth Elevation

Earthquake Activity

City Distance Mag. Time & Date
Minimum magnitude displayed is 2.5.

Coastal Water Temperatures

Place Temperature

Nearby Weather Stations